METAR Data
IDs: Format: Raw Decoded Include TAF

Data at: 0657 UTC 23 Oct 2018

METAR for:KFFT (Frankfort/Capital Ci, KY, US)
Text:KFFT 230653Z AUTO 24003KT 10SM CLR 07/02 A3017 RMK AO2 SLP215 T00720022
Temperature: 7.2°C ( 45°F)
Dewpoint: 2.2°C ( 36°F) [RH = 70%]
Pressure (altimeter):30.17 inches Hg (1021.8 mb) [Sea level pressure: 1021.5 mb]
Winds:from the WSW (240 degrees) at 3 MPH (3 knots; 1.5 m/s)
Visibility:10 or more sm (16+ km)
Ceiling:at least 12,000 feet AGL
Clouds:sky clear below 12,000 feet AGL
QC Flag:automated observation with no human augmentation